createdAt,value
2017-07-19T00:02:03.377Z,21.7
2017-07-19T00:07:03.397Z,21.7
2017-07-19T00:12:03.297Z,21.7
2017-07-19T00:17:03.222Z,21.7
2017-07-19T00:22:03.004Z,21.5
2017-07-19T00:27:02.751Z,21.3
2017-07-19T00:32:03.358Z,21.1
2017-07-19T00:37:02.916Z,20.9
2017-07-19T00:42:03.502Z,20.9
2017-07-19T00:47:03.150Z,20.8
2017-07-19T00:52:03.486Z,20.8
2017-07-19T00:57:03.151Z,20.8
2017-07-19T01:02:02.983Z,20.9
2017-07-19T01:07:03.083Z,20.8
2017-07-19T01:12:03.217Z,20.8
2017-07-19T01:17:03.247Z,20.8
2017-07-19T01:22:02.948Z,20.8
2017-07-19T01:27:02.916Z,20.7
2017-07-19T01:32:03.005Z,20.7
2017-07-19T01:37:03.147Z,20.7
2017-07-19T01:42:03.169Z,20.6
2017-07-19T01:47:03.157Z,20.5
2017-07-19T01:52:03.218Z,20.5
2017-07-19T01:57:03.386Z,20.4
2017-07-19T02:02:03.378Z,20.4
2017-07-19T02:07:03.427Z,20.4
2017-07-19T02:12:02.875Z,20.4
2017-07-19T02:17:03.176Z,20.3
2017-07-19T02:22:03.191Z,20.3
2017-07-19T02:27:03.157Z,20.3
2017-07-19T02:32:03.323Z,20.3
2017-07-19T02:37:03.523Z,20.2
2017-07-19T02:42:02.934Z,20.2
2017-07-19T02:47:03.321Z,20.2
2017-07-19T02:52:03.477Z,20.2
2017-07-19T02:57:02.860Z,20.2
2017-07-19T03:02:11.850Z,20.1
2017-07-19T03:07:03.637Z,20.1
2017-07-19T03:12:03.182Z,20.1
2017-07-19T03:22:03.145Z,20.0
2017-07-19T03:27:03.456Z,20.0
2017-07-19T03:32:13.060Z,20.0
2017-07-19T03:37:03.114Z,19.9
2017-07-19T03:42:02.782Z,19.9
2017-07-19T03:47:13.928Z,19.9
2017-07-19T03:52:02.839Z,19.8
2017-07-19T03:57:03.269Z,19.8
2017-07-19T04:02:13.373Z,19.9
2017-07-19T04:07:03.312Z,19.8
2017-07-19T04:12:02.777Z,19.8
2017-07-19T04:17:13.902Z,19.8
2017-07-19T04:22:03.603Z,19.8
2017-07-19T04:27:03.033Z,19.7
2017-07-19T04:32:13.859Z,19.7
2017-07-19T04:37:02.802Z,19.6
2017-07-19T04:42:03.106Z,19.6
2017-07-19T04:47:13.974Z,19.6
2017-07-19T04:52:02.844Z,19.6
2017-07-19T04:57:03.119Z,19.6
2017-07-19T05:02:13.935Z,19.7
2017-07-19T05:07:02.979Z,19.7
2017-07-19T05:12:03.454Z,19.7
2017-07-19T05:17:13.499Z,19.6
2017-07-19T05:22:03.354Z,20.0
2017-07-19T05:27:02.748Z,20.0
2017-07-19T05:32:13.667Z,20.1
2017-07-19T05:37:03.426Z,20.1
2017-07-19T05:42:02.767Z,20.2
2017-07-19T05:47:23.352Z,20.3
2017-07-19T05:52:03.489Z,20.4
2017-07-19T05:57:03.019Z,20.4
2017-07-19T06:02:12.237Z,20.8
2017-07-19T06:07:03.399Z,20.9
2017-07-19T06:12:02.925Z,21.3
2017-07-19T06:17:18.170Z,22.2
2017-07-19T06:22:03.594Z,22.6
2017-07-19T06:27:03.104Z,22.6
2017-07-19T06:32:13.761Z,22.8
2017-07-19T06:37:03.126Z,23.7
2017-07-19T06:42:03.463Z,23.7
2017-07-19T06:47:13.191Z,24.6
2017-07-19T06:52:03.075Z,25.0
2017-07-19T06:57:02.822Z,24.9
2017-07-19T07:02:13.519Z,25.4
2017-07-19T07:07:03.433Z,25.8
2017-07-19T07:12:03.062Z,26.1
2017-07-19T07:17:18.072Z,26.5
2017-07-19T07:22:02.771Z,26.9
2017-07-19T07:27:03.204Z,27.2
2017-07-19T07:32:13.746Z,27.5
2017-07-19T07:37:03.561Z,28.3
2017-07-19T07:42:02.991Z,28.3
2017-07-19T07:47:13.774Z,29.0
2017-07-19T07:52:03.174Z,29.4
2017-07-19T07:57:03.537Z,29.4
2017-07-19T08:02:22.678Z,30.3
2017-07-19T08:07:03.483Z,30.5
2017-07-19T08:12:03.064Z,30.5
2017-07-19T08:17:17.373Z,30.9
2017-07-19T08:22:03.035Z,31.1
2017-07-19T08:27:03.449Z,31.1
2017-07-19T08:32:13.053Z,31.5
2017-07-19T08:37:03.415Z,31.5
2017-07-19T08:42:02.818Z,31.7
2017-07-19T08:47:13.553Z,31.9
2017-07-19T08:52:02.987Z,31.9
2017-07-19T08:57:03.355Z,32.0
2017-07-19T09:02:17.229Z,32.0
2017-07-19T09:07:03.396Z,32.2
2017-07-19T09:12:02.893Z,32.2
2017-07-19T09:17:13.811Z,32.4
2017-07-19T09:22:02.821Z,32.5
2017-07-19T09:27:03.273Z,32.5
2017-07-19T09:32:17.939Z,32.7
2017-07-19T09:37:03.193Z,32.8
2017-07-19T09:42:03.462Z,32.9
2017-07-19T09:47:13.301Z,33.2
2017-07-19T09:52:02.688Z,33.3
2017-07-19T09:57:03.129Z,33.3
2017-07-19T10:02:17.648Z,33.3
2017-07-19T10:07:03.266Z,33.5
2017-07-19T10:12:03.681Z,33.8
2017-07-19T10:17:17.939Z,33.8
2017-07-19T10:22:03.235Z,33.8
2017-07-19T10:27:03.527Z,33.7
2017-07-19T10:32:13.218Z,33.9
2017-07-19T10:37:03.403Z,33.9
2017-07-19T10:42:03.541Z,34.4
2017-07-19T10:47:13.194Z,34.4
2017-07-19T10:52:02.948Z,35.0
2017-07-19T10:57:03.422Z,34.9
2017-07-19T11:02:13.298Z,35.3
2017-07-19T11:07:03.370Z,36.0
2017-07-19T11:12:03.469Z,36.0
2017-07-19T11:17:16.761Z,36.3
2017-07-19T11:22:03.595Z,36.6
2017-07-19T11:27:02.746Z,37.3
2017-07-19T11:32:17.720Z,37.3
2017-07-19T11:37:03.555Z,37.4
2017-07-19T11:42:02.714Z,37.8
2017-07-19T11:47:13.525Z,37.8
2017-07-19T11:52:03.362Z,37.8
2017-07-19T11:57:02.807Z,37.9
2017-07-19T12:02:17.416Z,37.9
2017-07-19T12:07:03.421Z,38.1
2017-07-19T12:12:02.902Z,38.2
2017-07-19T12:17:13.872Z,38.8
2017-07-19T12:22:03.513Z,39.0
2017-07-19T12:27:02.875Z,39.1
2017-07-19T12:32:13.398Z,39.3
2017-07-19T12:37:03.566Z,39.7
2017-07-19T12:42:03.411Z,40.2
2017-07-19T12:52:03.383Z,41.2
2017-07-19T12:57:02.743Z,40.6
2017-07-19T13:02:13.530Z,40.9
2017-07-19T13:07:03.213Z,41.0
2017-07-19T13:12:03.650Z,41.2
2017-07-19T13:17:13.880Z,41.2
2017-07-19T13:22:02.803Z,41.4
2017-07-19T13:27:03.200Z,41.3
2017-07-19T13:32:14.051Z,40.8
2017-07-19T13:37:03.628Z,40.7
2017-07-19T13:42:02.948Z,40.6
2017-07-19T13:47:13.996Z,40.2
2017-07-19T13:52:03.506Z,40.0
2017-07-19T13:57:02.934Z,40.3
2017-07-19T14:02:17.890Z,40.5
2017-07-19T14:07:03.296Z,40.5
2017-07-19T14:12:02.786Z,41.6
2017-07-19T14:22:03.601Z,42.2
2017-07-19T14:27:02.996Z,42.2
2017-07-19T14:32:17.908Z,43.2
2017-07-19T14:37:03.539Z,43.7
2017-07-19T14:42:02.914Z,44.5
2017-07-19T14:47:13.712Z,44.5
2017-07-19T14:52:03.378Z,45.3
2017-07-19T14:57:02.815Z,42.8
2017-07-19T15:02:13.387Z,39.4
2017-07-19T15:07:03.360Z,38.5
2017-07-19T15:12:02.881Z,38.5
2017-07-19T15:17:13.799Z,37.7
2017-07-19T15:22:02.802Z,38.0
2017-07-19T15:27:03.187Z,37.9
2017-07-19T15:32:13.799Z,38.2
2017-07-19T15:37:03.443Z,43.1
2017-07-19T15:42:02.778Z,41.8
2017-07-19T15:47:13.664Z,44.7
2017-07-19T15:52:03.176Z,48.2
2017-07-19T15:57:03.424Z,50.6
2017-07-19T16:02:13.444Z,54.4
2017-07-19T16:07:03.600Z,54.4
2017-07-19T16:12:03.055Z,55.4
2017-07-19T16:17:17.812Z,56.3
2017-07-19T16:22:03.051Z,56.8
2017-07-19T16:27:03.372Z,57.0
2017-07-19T16:32:17.519Z,57.6
2017-07-19T16:37:03.536Z,57.9
2017-07-19T16:42:02.841Z,53.0
2017-07-19T16:52:02.789Z,49.2
2017-07-19T16:57:03.275Z,49.2
2017-07-19T17:02:14.024Z,46.1
2017-07-19T17:07:02.859Z,44.4
2017-07-19T17:12:03.358Z,42.9
2017-07-19T17:17:14.199Z,42.0
2017-07-19T17:22:02.771Z,45.1
2017-07-19T17:27:03.067Z,44.0
2017-07-19T17:32:14.163Z,45.3
2017-07-19T17:37:02.712Z,46.4
2017-07-19T17:42:03.128Z,46.2
2017-07-19T17:47:13.825Z,47.4
2017-07-19T17:52:02.734Z,46.1
2017-07-19T17:57:03.152Z,42.7
2017-07-19T18:02:13.810Z,42.7
2017-07-19T18:07:03.345Z,38.2
2017-07-19T18:12:02.870Z,38.2
2017-07-19T18:17:13.825Z,36.3
2017-07-19T18:22:03.467Z,36.2
2017-07-19T18:27:02.853Z,35.2
2017-07-19T18:32:13.652Z,34.8
2017-07-19T18:37:03.251Z,34.7
2017-07-19T18:42:03.532Z,33.6
2017-07-19T18:47:13.473Z,33.1
2017-07-19T18:52:03.303Z,32.7
2017-07-19T18:57:02.762Z,32.6
2017-07-19T19:02:13.758Z,32.3
2017-07-19T19:07:03.589Z,31.8
2017-07-19T19:12:03.219Z,31.8
2017-07-19T19:17:13.279Z,31.6
2017-07-19T19:22:03.533Z,31.5
2017-07-19T19:27:03.533Z,31.3
2017-07-19T19:32:13.580Z,31.0
2017-07-19T19:37:03.409Z,31.0
2017-07-19T19:42:02.773Z,30.8
2017-07-19T19:47:13.901Z,30.3
2017-07-19T19:52:02.712Z,29.7
2017-07-19T19:57:03.099Z,28.2
2017-07-19T20:02:10.718Z,26.9
2017-07-19T20:07:03.437Z,25.7
2017-07-19T20:12:03.095Z,25.6
2017-07-19T20:17:03.463Z,24.9
2017-07-19T20:22:02.739Z,24.4
2017-07-19T20:27:03.105Z,24.0
2017-07-19T20:32:03.349Z,23.5
2017-07-19T20:37:03.638Z,23.5
2017-07-19T20:42:02.915Z,23.4
2017-07-19T20:47:03.231Z,23.3
2017-07-19T20:52:03.520Z,23.3
2017-07-19T20:57:02.909Z,23.0
2017-07-19T21:02:03.196Z,23.0
2017-07-19T21:07:03.640Z,22.7
2017-07-19T21:12:03.169Z,22.2
2017-07-19T21:17:03.699Z,22.0
2017-07-19T21:22:02.849Z,21.9
2017-07-19T21:27:03.096Z,21.8
2017-07-19T21:32:03.726Z,21.8
2017-07-19T21:37:03.625Z,21.6
2017-07-19T21:42:03.156Z,21.4
2017-07-19T21:47:03.477Z,21.3
2017-07-19T21:52:02.761Z,21.2
2017-07-19T21:57:03.107Z,21.1
2017-07-19T22:02:03.778Z,20.9
2017-07-19T22:07:03.029Z,21.0
2017-07-19T22:12:03.415Z,20.9
2017-07-19T22:22:03.595Z,20.7
2017-07-19T22:27:03.347Z,20.6
2017-07-19T22:32:03.500Z,20.5
2017-07-19T22:37:03.546Z,20.5
2017-07-19T22:42:02.743Z,20.4
2017-07-19T22:47:02.742Z,20.3
2017-07-19T22:52:03.589Z,20.3
2017-07-19T22:57:03.270Z,20.3
2017-07-19T23:02:03.210Z,20.2
2017-07-19T23:07:03.235Z,20.5
2017-07-19T23:12:03.249Z,20.6
2017-07-19T23:17:03.349Z,20.6
2017-07-19T23:22:02.845Z,20.7
2017-07-19T23:27:03.744Z,20.7
2017-07-19T23:32:03.617Z,20.7
2017-07-19T23:37:03.188Z,20.7
2017-07-19T23:42:02.899Z,20.8
2017-07-19T23:47:03.630Z,20.9
2017-07-19T23:52:03.537Z,20.9
2017-07-19T23:57:03.404Z,20.8
